Lochluichart, United Kingdom
Current Conditions -  °F | °C
As of 11:50 AM on Thursday 30 Oct 2014 (Local Time) from EGPE Reporting Station
Broken Clouds Broken Clouds  
Wind Chill: 46°   Ceiling: 2800
Heat Index: 46°   Visibility: 5mi
Dew Point: 46°   Wind: 3mph
Humidity: 100%   Direction: 210°SSW
Pressure: 29.88"   Gusts: NA
Location:  57.63°N, 4.77°W
Report Text: EGPE 301150Z 21003KT 8000 FEW002 SCT016 BKN028 08/08 Q1012
Loading
Personal Weather Stations






























Interactive Weather Map
Tropical Storm Tracking
New forecast layout! Learn more

10-Day Weather Forecast

Advertisements
Track Severe Weather on mobile